To NAV CANADA Home Page Login to a new session Search on AWWS site Disclaimer Vers la page française équivalente Tips FAQ What's new on the site To the Forecasts and Observations / NOTAM section To "File a Flight Plan" website Publications and other links Update of the User's profile FIC Telephone Numbers My Weather Data Folder Route Weather Data Regional Weather Data Local Weather Data To the Forecasts and Observations / NOTAM section
Request Generated 10/21/2018 at 05:57:00 UTC . Weather information available at that time is displayed.

METAR/TAF

BAKER LAKE/NU    

METAR CYBK 210500Z 13014KT 15SM -SN SCT014 BKN130 OVC170 M11/M13 A2979 RMK SC3AC3AC2 PCPN VRY LGT SLP092=
METAR CYBK 210400Z 14015KT 15SM -SN FEW013 BKN100 OVC130 M11/M14 A2981 RMK SC1AC4AC3 PCPN VRY LGT SLP097=
METAR CYBK 210300Z 14016KT 15SM -SN BKN080 OVC100 M11/M14 A2982 RMK AC5AC3 PCPN VRY LGT SLP101=

TAF CYBK 210547Z 2106/2118 13015G28KT P6SM -SN SCT015 OVC080 TEMPO
2106/2111 2SM -SHSN VV015
FM211100 13018G30KT 3/4SM -SHSN BLSN VV008 TEMPO 2111/2118 3SM
-SN BR OVC012
RMK NXT FCST BY 211200Z=
Your time UTC time
Weather data provided by Environment Canada and NAV CANADA